Montagu Bay, Australia

6:32 PM AEST on June 23, 2017 (GMT +1000)
Rose Bay, Tasmania | | Change Station

Elev 200 ft 42.86 °S, 147.36 °E | Updated 3 seconds ago

Partly Cloudy
Partly Cloudy
46.8 °F
Feels Like 46 °F
N
3.6
Wind Variable Wind from WNW
Gusts 4.9 mph

Today
High -- | Low -- °F
--% Chance of Precip.
Yesterday
High -- | Low -- °F
Precip. -- in
Pressure 29.59 in
Visibility 6.2 miles
Clouds Few 1400 ft
Scattered Clouds 3000 ft
Windchill 46 °F
Dew Point 38 °F
Humidity 71%
Rainfall 0.04 in
Snow Depth Not available.
7:42 AM 4:43 PM
Waning Crescent, 1% visible
METAR YMHB 230800Z 26008KT 9999 VCSH FEW014 SCT030 08/03 Q1002 RF00.0/001.0
Pressure 29.59 in
Visibility 6.2 miles
Clouds Few 1400 ft
Scattered Clouds 3000 ft
Windchill 46 °F
Dew Point 38 °F
Humidity 71%
Rainfall 0.04 in
Snow Depth Not available.
7:42 AM 4:43 PM
Waning Crescent, 1% visible
METAR YMHB 230800Z 26008KT 9999 VCSH FEW014 SCT030 08/03 Q1002 RF00.0/001.0

Get Severe Weather Alerts

Thanks for signing up!

Be on the lookout for a verification email in your inbox.

You'll start receiving the daily forecast at 6 AM.

×

10-Day Weather Forecast

×

Almanac

Astronomy

Jun. 23, 2017 Rise Set
Actual Time
Civil Twilight
Nautical Twilight
Astronomical Twilight
Moon
Length of Visible Light
Length of Day
Tomorrow will be .
, % of the Moon is Illuminated

Today's Extremes

Country Highs Country Lows

Community

WunderPhotos

Category 6

Welcome to Category 6. This is the collective home for Weather Underground's featured writeups by Dr. Jeff Masters (right), Bob Henson (left), Chris Burt, and other regular contributors.

Nearby

Air Quality

  Air Quality AQ Index Pollutant
Not available.

Snow Depth

Station Depth Elevation

Earthquake Activity

City Distance Mag. Time & Date
Minimum magnitude displayed is 2.5.

Coastal Water Temperatures

Place Temperature

Stations

Nearby Weather Stations

Station Location Temp. Windchill Dew Point Humidity Wind Precip. Elev Updated Type